Time;durP1;ratioP1;P1;durP2;ratioP2;P2;SDS_P1;SDS_P2;PMS_P1;PMS_P2;Temp;Humidity;BMP_temperature;BMP_pressure;BME280_temperature;BME280_humidity;BME280_pressure;Samples;Min_cycle;Max_cycle;Signal;HPM_P1;HPM_P2
2023/04/22 00:01:42;;;;;;;25.17;14.63;;;;;;;;;;4893931;29;20497;-94
2023/04/22 00:04:45;;;;;;;;;;;;;;;;;;;;;
2023/04/22 00:07:28;;;;;;;;;;;;;;;;;;;;;
2023/04/22 00:09:58;;;;;;;29.08;16.92;;;;;;;;;;4880112;29;20090;-95
2023/04/22 00:12:31;;;;;;;25.77;15.35;;;;;;;;;;4893819;29;20098;-94
2023/04/22 00:14:57;;;;;;;22.70;14.05;;;;;;;;;;4886490;29;20029;-91
2023/04/22 00:17:26;;;;;;;20.40;11.57;;;;;;;;;;4878191;29;20036;-90
2023/04/22 00:20:12;;;;;;;;;;;;;;;;;;;;;
2023/04/22 00:22:39;;;;;;;22.48;11.77;;;;;;;;;;4871148;29;20043;-90
2023/04/22 00:25:11;;;;;;;24.40;12.80;;;;;;;;;;4878014;29;20021;-96
2023/04/22 00:27:37;;;;;;;21.67;12.95;;;;;;;;;;4877924;29;20037;-91
2023/04/22 00:30:05;;;;;;;16.02;11.43;;;;;;;;;;4877993;29;20061;-94
2023/04/22 00:32:37;;;;;;;17.85;10.98;;;;;;;;;;4877041;29;20105;-91
2023/04/22 00:35:18;;;;;;;16.25;10.27;;;;;;;;;;4893763;29;20095;-90
2023/04/22 00:37:44;;;;;;;15.93;10.68;;;;;;;;;;4877289;29;20113;-93
2023/04/22 00:40:10;;;;;;;16.60;9.77;;;;;;;;;;4876953;29;20036;-90
2023/04/22 00:42:37;;;;;;;13.00;9.48;;;;;;;;;;4893333;29;20398;-90
2023/04/22 00:45:03;;;;;;;13.77;10.40;;;;;;;;;;4892611;29;20085;-91
2023/04/22 00:47:31;;;;;;;15.02;9.45;;;;;;;;;;4876642;29;20061;-91
2023/04/22 00:50:17;;;;;;;;;;;;;;;;;;;;;
2023/04/22 00:52:43;;;;;;;17.13;9.70;;;;;;;;;;4878703;29;20041;-92
2023/04/22 00:55:10;;;;;;;15.45;10.57;;;;;;;;;;4878032;29;20033;-90
2023/04/22 00:57:36;;;;;;;14.77;10.88;;;;;;;;;;4877471;29;20144;-90
2023/04/22 01:00:04;;;;;;;16.23;10.38;;;;;;;;;;4876580;29;20035;-91
2023/04/22 01:02:30;;;;;;;17.17;11.32;;;;;;;;;;4876899;29;20037;-90
2023/04/22 01:04:56;;;;;;;17.25;12.00;;;;;;;;;;4892513;29;20025;-90
2023/04/22 01:07:23;;;;;;;16.92;11.93;;;;;;;;;;4892403;29;20072;-91
2023/04/22 01:12:52;;;;;;;16.90;11.90;;;;;;;;;;5400495;23;20022;-91
2023/04/22 01:15:27;;;;;;;18.52;10.27;;;;;;;;;;4892182;29;20057;-95
2023/04/22 01:18:06;;;;;;;15.95;10.50;;;;;;;;;;4904180;23;20080;-90
2023/04/22 01:20:48;;;;;;;19.23;12.13;;;;;;;;;;4896596;29;20045;-92
2023/04/22 01:23:34;;;;;;;17.15;10.57;;;;;;;;;;4890468;29;20037;-94
2023/04/22 01:26:01;;;;;;;16.48;11.05;;;;;;;;;;4878449;29;20359;-94
2023/04/22 01:28:27;;;;;;;17.80;12.35;;;;;;;;;;4860515;29;20037;-91
2023/04/22 01:30:53;;;;;;;19.70;12.30;;;;;;;;;;4895907;29;20394;-90
2023/04/22 01:33:19;;;;;;;18.73;12.60;;;;;;;;;;4895656;29;20040;-91
2023/04/22 01:38:32;;;;;;;20.25;11.68;;;;;;;;;;4891786;23;20276;-90
2023/04/22 01:41:01;;;;;;;19.27;11.73;;;;;;;;;;4895818;29;20525;-93
2023/04/22 01:43:31;;;;;;;17.77;12.13;;;;;;;;;;4879905;29;20029;-90
2023/04/22 01:45:57;;;;;;;19.67;12.32;;;;;;;;;;4880168;29;20051;-90
2023/04/22 01:48:23;;;;;;;17.95;12.52;;;;;;;;;;4895191;29;20043;-90
2023/04/22 01:50:49;;;;;;;14.50;10.40;;;;;;;;;;4880200;29;20053;-91
2023/04/22 01:53:23;;;;;;;22.33;12.07;;;;;;;;;;4879575;29;20367;-95
2023/04/22 01:55:52;;;;;;;16.98;10.07;;;;;;;;;;4895184;29;20088;-96
2023/04/22 01:58:21;;;;;;;19.48;12.02;;;;;;;;;;4895369;29;20505;-95
2023/04/22 02:00:52;;;;;;;16.58;10.95;;;;;;;;;;4895121;29;20029;-94
2023/04/22 02:03:18;;;;;;;19.45;11.60;;;;;;;;;;4880506;24;20136;-95
2023/04/22 02:05:44;;;;;;;20.55;13.15;;;;;;;;;;4895556;29;20033;-91
2023/04/22 02:08:14;;;;;;;18.17;12.85;;;;;;;;;;4896114;29;20032;-91
2023/04/22 02:10:47;;;;;;;17.58;11.27;;;;;;;;;;4894971;29;20085;-92
2023/04/22 02:13:14;;;;;;;17.98;12.00;;;;;;;;;;4880481;29;20037;-91
2023/04/22 02:15:43;;;;;;;20.42;12.93;;;;;;;;;;4887662;29;20119;-91
2023/04/22 02:18:09;;;;;;;23.00;13.38;;;;;;;;;;4896076;29;20184;-90
2023/04/22 02:20:36;;;;;;;18.08;12.23;;;;;;;;;;4898036;29;20271;-91
2023/04/22 02:23:02;;;;;;;15.25;11.55;;;;;;;;;;4879165;29;20037;-91
2023/04/22 02:25:29;;;;;;;21.02;12.82;;;;;;;;;;4880033;29;20391;-90
2023/04/22 02:27:55;;;;;;;19.77;12.98;;;;;;;;;;4879011;29;20056;-90
2023/04/22 02:30:22;;;;;;;22.10;13.60;;;;;;;;;;4894443;29;20029;-90
2023/04/22 02:32:54;;;;;;;20.58;14.27;;;;;;;;;;4894941;29;20041;-94
2023/04/22 02:35:44;;;;;;;18.75;13.60;;;;;;;;;;4879549;29;20028;-95
2023/04/22 02:38:35;;;;;;;23.52;14.73;;;;;;;;;;4876714;29;20044;-94
2023/04/22 02:41:01;;;;;;;19.52;13.45;;;;;;;;;;4878938;29;20041;-95
2023/04/22 02:43:28;;;;;;;22.05;14.82;;;;;;;;;;4894887;29;20455;-92
2023/04/22 02:46:11;;;;;;;25.52;15.20;;;;;;;;;;4894616;29;20115;-89
2023/04/22 02:51:38;;;;;;;24.90;13.07;;;;;;;;;;4881994;29;20073;-91
2023/04/22 02:54:30;;;;;;;22.90;14.93;;;;;;;;;;4898335;29;20064;-93
2023/04/22 02:56:56;;;;;;;25.65;14.73;;;;;;;;;;4868470;29;20037;-90
2023/04/22 02:59:23;;;;;;;20.83;12.30;;;;;;;;;;4878810;29;20093;-88
2023/04/22 03:01:58;;;;;;;21.15;13.15;;;;;;;;;;4894916;29;20090;-92
2023/04/22 03:04:27;;;;;;;19.88;13.50;;;;;;;;;;4860082;29;20413;-93
2023/04/22 03:06:53;;;;;;;20.50;13.85;;;;;;;;;;4848774;29;20080;-95
2023/04/22 03:09:21;;;;;;;23.00;15.10;;;;;;;;;;4847776;29;20129;-90
2023/04/22 03:11:47;;;;;;;27.60;15.27;;;;;;;;;;4844441;29;20093;-91
2023/04/22 03:14:34;;;;;;;21.80;15.23;;;;;;;;;;4845052;29;20332;-90
2023/04/22 03:17:00;;;;;;;19.52;14.00;;;;;;;;;;4860474;29;20029;-89
2023/04/22 03:19:29;;;;;;;22.33;15.13;;;;;;;;;;4859708;29;20483;-91
2023/04/22 03:21:55;;;;;;;22.27;13.25;;;;;;;;;;4859925;29;20026;-90
2023/04/22 03:24:37;;;;;;;19.83;13.73;;;;;;;;;;4844835;29;20033;-95
2023/04/22 03:27:04;;;;;;;30.67;14.93;;;;;;;;;;4854094;29;20037;-94
2023/04/22 03:29:50;;;;;;;23.08;15.27;;;;;;;;;;4844636;29;20032;-94
2023/04/22 03:32:16;;;;;;;25.00;15.55;;;;;;;;;;4844287;29;20069;-92
2023/04/22 03:34:44;;;;;;;24.65;14.50;;;;;;;;;;4862188;29;20041;-91
2023/04/22 03:37:16;;;;;;;22.25;14.10;;;;;;;;;;4844363;29;20173;-90
2023/04/22 03:39:43;;;;;;;23.08;15.10;;;;;;;;;;4859214;29;20042;-95
2023/04/22 03:45:23;;;;;;;24.55;14.80;;;;;;;;;;4860172;29;20040;-93
2023/04/22 03:50:26;;;;;;;28.27;15.35;;;;;;;;;;5521935;24;20475;-90
2023/04/22 03:52:52;;;;;;;25.25;15.75;;;;;;;;;;4894854;29;20057;-92
2023/04/22 03:55:23;;;;;;;25.33;14.82;;;;;;;;;;4894123;29;20044;-95
2023/04/22 03:57:49;;;;;;;22.00;14.90;;;;;;;;;;4863529;29;20041;-92
2023/04/22 04:00:20;;;;;;;21.77;13.93;;;;;;;;;;4894138;29;20052;-91
2023/04/22 04:03:11;;;;;;;28.38;14.80;;;;;;;;;;4939895;23;20057;-93
2023/04/22 04:05:38;;;;;;;23.02;14.25;;;;;;;;;;4874452;29;20049;-95
2023/04/22 04:08:24;;;;;;;24.13;14.82;;;;;;;;;;4859253;29;20093;-96
2023/04/22 04:11:03;;;;;;;14.45;10.20;;;;;;;;;;4853944;29;20113;-95
2023/04/22 04:13:49;;;;;;;17.50;10.77;;;;;;;;;;4875612;23;20061;-95
2023/04/22 04:16:16;;;;;;;25.52;13.73;;;;;;;;;;4857423;29;20136;-94
2023/04/22 04:18:48;;;;;;;22.65;13.32;;;;;;;;;;4843233;29;20132;-95
2023/04/22 04:21:14;;;;;;;19.63;12.30;;;;;;;;;;4841847;29;20053;-90
2023/04/22 04:24:28;;;;;;;;;;;;;;;;;;;;;
2023/04/22 04:29:31;;;;;;;18.52;12.48;;;;;;;;;;2406043;23;20305;-86
2023/04/22 04:31:57;;;;;;;17.75;12.35;;;;;;;;;;4892444;29;20060;-88
2023/04/22 04:34:24;;;;;;;17.88;12.27;;;;;;;;;;4879440;29;20473;-89
2023/04/22 04:36:50;;;;;;;18.92;11.85;;;;;;;;;;4878435;29;20085;-88
2023/04/22 04:39:16;;;;;;;22.50;11.32;;;;;;;;;;4879935;29;20224;-93
2023/04/22 04:41:43;;;;;;;19.75;11.13;;;;;;;;;;4879894;29;20037;-89
2023/04/22 04:44:11;;;;;;;19.00;11.48;;;;;;;;;;4878532;29;20076;-91
2023/04/22 04:46:38;;;;;;;17.13;10.35;;;;;;;;;;4880527;29;20041;-89
2023/04/22 04:49:04;;;;;;;17.98;10.13;;;;;;;;;;4894203;29;20089;-88
2023/04/22 04:51:46;;;;;;;17.88;10.68;;;;;;;;;;4879551;29;20037;-93
2023/04/22 04:54:37;;;;;;;17.02;10.10;;;;;;;;;;4899910;29;20089;-95
2023/04/22 04:57:15;;;;;;;17.77;9.48;;;;;;;;;;4869924;29;20044;-94
2023/04/22 05:02:31;;;;;;;15.48;8.68;;;;;;;;;;4885270;29;20052;-91
2023/04/22 05:05:00;;;;;;;17.45;7.97;;;;;;;;;;4887093;29;20120;-93
2023/04/22 05:10:37;;;;;;;14.18;7.82;;;;;;;;;;4888812;29;20040;-95
2023/04/22 05:13:07;;;;;;;10.98;7.82;;;;;;;;;;4883534;29;20041;-89
2023/04/22 05:16:10;;;;;;;10.20;6.30;;;;;;;;;;4885394;29;20076;-95
2023/04/22 05:18:39;;;;;;;9.27;6.30;;;;;;;;;;4868491;29;20033;-88
2023/04/22 05:21:05;;;;;;;11.70;6.85;;;;;;;;;;4866314;29;20120;-89
2023/04/22 05:23:31;;;;;;;13.32;7.85;;;;;;;;;;4865335;29;20057;-89
2023/04/22 05:29:00;;;;;;;10.52;7.07;;;;;;;;;;5123346;23;20093;-90
2023/04/22 05:31:35;;;;;;;13.15;7.10;;;;;;;;;;4897814;29;20077;-90
2023/04/22 05:34:02;;;;;;;12.88;6.72;;;;;;;;;;4896365;29;20784;-90
2023/04/22 05:37:07;;;;;;;12.18;7.18;;;;;;;;;;4880206;29;20037;-94
2023/04/22 05:39:56;;;;;;;10.68;6.80;;;;;;;;;;4877037;29;20033;-93
2023/04/22 05:42:22;;;;;;;10.05;6.47;;;;;;;;;;4882046;29;20029;-92
2023/04/22 05:44:53;;;;;;;9.90;6.35;;;;;;;;;;4898896;29;20036;-95
2023/04/22 05:47:19;;;;;;;10.15;6.43;;;;;;;;;;4898331;29;20064;-91
2023/04/22 05:52:37;;;;;;;13.07;6.57;;;;;;;;;;4883571;29;20517;-92
2023/04/22 06:06:18;;;;;;;8.27;6.30;;;;;;;;;;4918049;23;20057;-92
2023/04/22 06:08:44;;;;;;;9.32;5.88;;;;;;;;;;4896832;29;20228;-92
2023/04/22 06:11:13;;;;;;;9.15;5.65;;;;;;;;;;4883957;29;20032;-90
2023/04/22 06:13:39;;;;;;;7.85;4.75;;;;;;;;;;4884320;29;20074;-90
2023/04/22 06:16:06;;;;;;;9.52;5.25;;;;;;;;;;4882156;29;20025;-90
2023/04/22 06:18:32;;;;;;;10.23;5.60;;;;;;;;;;4885180;29;20060;-91
2023/04/22 06:21:01;;;;;;;7.93;5.55;;;;;;;;;;4899102;29;20386;-95
2023/04/22 06:23:27;;;;;;;8.50;6.03;;;;;;;;;;4882285;29;20021;-91
2023/04/22 06:25:54;;;;;;;10.18;6.00;;;;;;;;;;4880731;29;20040;-91
2023/04/22 06:28:20;;;;;;;10.68;5.80;;;;;;;;;;4880392;29;20057;-92
2023/04/22 06:30:48;;;;;;;8.82;5.78;;;;;;;;;;4887402;29;20116;-95
2023/04/22 06:33:18;;;;;;;8.23;6.30;;;;;;;;;;4878858;29;20049;-90
2023/04/22 06:35:44;;;;;;;10.35;5.88;;;;;;;;;;4880487;29;20101;-89
2023/04/22 06:38:10;;;;;;;9.80;5.90;;;;;;;;;;4889025;29;20028;-90
2023/04/22 06:40:36;;;;;;;9.50;6.13;;;;;;;;;;4886592;29;20033;-94
2023/04/22 06:43:03;;;;;;;8.52;6.45;;;;;;;;;;4882980;29;20044;-92
2023/04/22 06:45:40;;;;;;;12.35;6.25;;;;;;;;;;4899614;29;20485;-95
2023/04/22 06:48:06;;;;;;;12.75;6.60;;;;;;;;;;4886480;29;20520;-90
2023/04/22 06:50:32;;;;;;;9.23;6.43;;;;;;;;;;4898382;29;20032;-91
2023/04/22 06:52:59;;;;;;;10.23;6.47;;;;;;;;;;4897909;29;20056;-90
2023/04/22 06:55:33;;;;;;;9.30;6.32;;;;;;;;;;4880310;29;20037;-94
2023/04/22 07:24:12;;;;;;;12.15;8.07;;;;;;;;;;5337835;23;20049;-95
2023/04/22 07:35:51;;;;;;;10.10;7.57;;;;;;;;;;4958254;23;20466;-95
2023/04/22 07:46:10;;;;;;;12.05;7.80;;;;;;;;;;5633256;23;20081;-95
2023/04/22 07:48:37;;;;;;;;;;;;;;;;;;4905443;29;20037;-95
2023/04/22 07:53:56;;;;;;;12.73;8.20;;;;;;;;;;4882169;29;20025;-94
2023/04/22 07:56:25;;;;;;;;;;;;;;;;;;4908843;29;20105;-95
2023/04/22 08:59:43;;;;;;;11.40;6.90;;;;;;;;;;5102958;23;20057;-92
2023/04/22 09:05:17;;;;;;;13.60;7.32;;;;;;;;;;5053857;23;20056;-92
2023/04/22 09:10:37;;;;;;;12.43;6.43;;;;;;;;;;5062943;23;20057;-91
2023/04/22 09:13:06;;;;;;;11.98;6.40;;;;;;;;;;4904098;29;20033;-91
2023/04/22 09:15:33;;;;;;;13.57;6.68;;;;;;;;;;5127458;23;20075;-91
2023/04/22 09:20:29;;;;;;;11.43;6.93;;;;;;;;;;5057041;23;20532;-92
2023/04/22 09:22:56;;;;;;;10.32;7.00;;;;;;;;;;5021315;23;20061;-91
2023/04/22 09:27:58;;;;;;;13.15;7.30;;;;;;;;;;4894178;23;20499;-91
2023/04/22 09:33:16;;;;;;;16.60;7.18;;;;;;;;;;4907241;23;20080;-91
2023/04/22 09:35:45;;;;;;;12.65;7.55;;;;;;;;;;4888319;29;20068;-90
2023/04/22 09:43:32;;;;;;;12.70;7.90;;;;;;;;;;5199539;23;20057;-93
2023/04/22 09:46:01;;;;;;;14.48;7.75;;;;;;;;;;4902210;29;20040;-90
2023/04/22 09:48:27;;;;;;;13.93;7.63;;;;;;;;;;4915566;29;20028;-93
2023/04/22 09:50:53;;;;;;;13.57;8.65;;;;;;;;;;4906114;29;20029;-91
2023/04/22 09:53:45;;;;;;;15.32;7.88;;;;;;;;;;4919504;23;20053;-96
2023/04/22 09:56:41;;;;;;;13.65;6.72;;;;;;;;;;4892897;29;20383;-95
2023/04/22 10:58:00;;;;;;;14.23;6.30;;;;;;;;;;5339561;23;20080;-96
2023/04/22 11:00:42;;;;;;;12.50;6.75;;;;;;;;;;4893731;29;20052;-95
2023/04/22 11:03:09;;;;;;;14.25;6.53;;;;;;;;;;4905054;29;20045;-93
2023/04/22 11:05:37;;;;;;;14.05;6.05;;;;;;;;;;4898130;29;20085;-95
2023/04/22 11:10:50;;;;;;;12.05;5.88;;;;;;;;;;5492855;23;20052;-96
2023/04/22 12:13:03;;;;;;;10.50;4.60;;;;;;;;;;5651696;23;20064;-94
2023/04/22 12:21:17;;;;;;;13.02;4.30;;;;;;;;;;4894822;29;20041;-95
2023/04/22 12:23:44;;;;;;;12.05;4.75;;;;;;;;;;4890297;29;20036;-91
2023/04/22 12:26:11;;;;;;;8.88;4.03;;;;;;;;;;4881528;29;20088;-90
2023/04/22 12:28:44;;;;;;;9.75;4.22;;;;;;;;;;4889552;29;20066;-91
2023/04/22 12:31:15;;;;;;;10.18;3.30;;;;;;;;;;5067107;23;20048;-95
2023/04/22 12:33:43;;;;;;;12.80;4.93;;;;;;;;;;5009499;23;20021;-92
2023/04/22 12:36:16;;;;;;;11.02;4.22;;;;;;;;;;5019151;23;20052;-94
2023/04/22 12:41:57;;;;;;;7.85;3.92;;;;;;;;;;4891563;29;20745;-96
2023/04/22 12:44:35;;;;;;;9.50;4.00;;;;;;;;;;4900481;29;20033;-94
2023/04/22 12:47:04;;;;;;;8.45;3.97;;;;;;;;;;4899202;29;20035;-95
2023/04/22 12:49:37;;;;;;;10.25;3.85;;;;;;;;;;4897340;29;20037;-94
2023/04/22 12:52:04;;;;;;;9.63;3.60;;;;;;;;;;4900412;29;20431;-90
2023/04/22 12:54:30;;;;;;;6.88;4.00;;;;;;;;;;4896302;29;20033;-93
2023/04/22 12:57:05;;;;;;;8.85;4.03;;;;;;;;;;4898305;29;20041;-93
2023/04/22 12:59:40;;;;;;;7.50;3.95;;;;;;;;;;4903404;29;20032;-95
2023/04/22 13:02:07;;;;;;;9.60;3.78;;;;;;;;;;4892381;29;20070;-93
2023/04/22 13:04:37;;;;;;;8.35;3.85;;;;;;;;;;4885904;29;20072;-91
2023/04/22 13:07:04;;;;;;;10.13;4.13;;;;;;;;;;4876929;29;20376;-92
2023/04/22 13:09:30;;;;;;;9.27;4.13;;;;;;;;;;4874911;29;20035;-92
2023/04/22 13:12:03;;;;;;;7.90;3.30;;;;;;;;;;5084722;23;20111;-91
2023/04/22 13:18:03;;;;;;;8.20;3.10;;;;;;;;;;4843144;29;20208;-94
2023/04/22 13:20:55;;;;;;;6.80;3.47;;;;;;;;;;4828943;29;20026;-93
2023/04/22 13:23:36;;;;;;;12.73;3.50;;;;;;;;;;4829996;29;20038;-92
2023/04/22 13:26:31;;;;;;;6.53;3.17;;;;;;;;;;4845417;29;20051;-93
2023/04/22 13:29:17;;;;;;;8.20;3.60;;;;;;;;;;4867300;29;20075;-91
2023/04/22 13:32:14;;;;;;;9.55;3.35;;;;;;;;;;4903717;29;20021;-91
2023/04/22 13:38:34;;;;;;;7.30;3.28;;;;;;;;;;4843815;29;20091;-96
2023/04/22 13:41:08;;;;;;;9.65;3.80;;;;;;;;;;4901785;29;20030;-93
2023/04/22 13:43:43;;;;;;;7.45;3.30;;;;;;;;;;4901932;29;20100;-94
2023/04/22 13:46:26;;;;;;;6.32;3.10;;;;;;;;;;4901557;29;20069;-93
2023/04/22 13:49:15;;;;;;;5.13;3.30;;;;;;;;;;4901416;29;20399;-94
2023/04/22 13:51:57;;;;;;;9.10;3.50;;;;;;;;;;4900198;29;20070;-93
2023/04/22 13:54:45;;;;;;;5.93;3.20;;;;;;;;;;4902547;29;20065;-94
2023/04/22 13:57:40;;;;;;;12.20;6.30;;;;;;;;;;4901840;29;20135;-93
2023/04/22 14:06:48;;;;;;;8.93;3.65;;;;;;;;;;4878540;29;20134;-94
2023/04/22 14:16:06;;;;;;;6.60;3.47;;;;;;;;;;5274750;23;20117;-91
2023/04/22 14:18:38;;;;;;;8.45;3.42;;;;;;;;;;4894968;29;20053;-92
2023/04/22 14:21:23;;;;;;;8.38;3.10;;;;;;;;;;4841673;29;20039;-91
2023/04/22 14:30:20;;;;;;;5.50;2.53;;;;;;;;;;4849520;29;20108;-94
2023/04/22 14:54:36;;;;;;;6.95;3.00;;;;;;;;;;5647372;23;20493;31
2023/04/22 15:31:29;;;;;;;8.23;4.30;;;;;;;;;;5636300;23;20059;-93
2023/04/22 15:34:31;;;;;;;6.40;2.72;;;;;;;;;;4909538;29;20045;-96
2023/04/22 15:37:29;;;;;;;6.25;2.47;;;;;;;;;;4910136;29;20056;-95
2023/04/22 15:48:35;;;;;;;8.00;2.80;;;;;;;;;;5367940;23;20879;-92
2023/04/22 15:51:09;;;;;;;7.32;2.95;;;;;;;;;;4844054;29;20272;-94
2023/04/22 15:54:20;;;;;;;;;;;;;;;;;;4856957;29;20035;-94
2023/04/22 16:07:50;;;;;;;6.55;3.10;;;;;;;;;;5202169;24;20065;-96
2023/04/22 16:10:16;;;;;;;8.00;2.70;;;;;;;;;;4892773;29;20052;-94
2023/04/22 16:12:42;;;;;;;4.95;2.45;;;;;;;;;;4894521;29;20029;-96
2023/04/22 16:15:09;;;;;;;6.88;2.42;;;;;;;;;;4895078;29;20036;-94
2023/04/22 16:17:38;;;;;;;5.40;2.60;;;;;;;;;;4897053;29;20045;-95
2023/04/22 16:20:23;;;;;;;8.88;3.05;;;;;;;;;;4899526;29;20490;-94
2023/04/22 16:22:49;;;;;;;5.72;2.90;;;;;;;;;;4916673;23;20049;-94
2023/04/22 16:25:15;;;;;;;5.72;2.70;;;;;;;;;;4864310;29;20034;-91
2023/04/22 16:27:42;;;;;;;5.10;2.47;;;;;;;;;;4866744;29;20034;-94
2023/04/22 16:48:43;;;;;;;;;;;;;;;;;;;;;
2023/04/22 16:51:45;;;;;;;6.57;2.65;;;;;;;;;;4875831;29;20106;-95
2023/04/22 17:07:37;;;;;;;7.68;3.03;;;;;;;;;;5938655;23;20139;-94
2023/04/22 17:13:29;;;;;;;9.13;3.15;;;;;;;;;;4834760;29;20037;-96
2023/04/22 17:24:46;;;;;;;12.13;4.60;;;;;;;;;;5799667;23;20324;31
2023/04/22 17:27:17;;;;;;;13.27;5.13;;;;;;;;;;4854195;29;20030;-96
2023/04/22 17:47:34;;;;;;;10.07;5.68;;;;;;;;;;5947949;23;20226;-94
2023/04/22 17:53:04;;;;;;;11.60;6.18;;;;;;;;;;5533533;23;19912;-92
2023/04/22 17:55:50;;;;;;;12.18;7.45;;;;;;;;;;4916159;29;20017;-93
2023/04/22 18:01:20;;;;;;;13.95;8.10;;;;;;;;;;5605692;23;19902;-95
2023/04/22 18:13:18;;;;;;;20.80;11.35;;;;;;;;;;5426514;23;20038;-92
2023/04/22 18:16:12;;;;;;;22.90;11.20;;;;;;;;;;5778345;23;20402;-92
2023/04/22 19:14:34;;;;;;;80.70;38.97;;;;;;;;;;4866226;29;20061;-94
2023/04/22 19:17:00;;;;;;;89.13;41.30;;;;;;;;;;4872114;29;20049;-94
2023/04/22 19:19:29;;;;;;;88.45;41.50;;;;;;;;;;4881249;29;20044;-90
2023/04/22 19:25:09;;;;;;;82.15;41.05;;;;;;;;;;4879766;29;20043;-95
2023/04/22 19:27:51;;;;;;;78.40;37.53;;;;;;;;;;4891735;29;20062;-92
2023/04/22 19:30:18;;;;;;;69.38;36.25;;;;;;;;;;4887192;29;20062;-95
2023/04/22 19:33:05;;;;;;;62.05;31.02;;;;;;;;;;4871087;29;20041;-93
2023/04/22 19:35:32;;;;;;;47.17;25.20;;;;;;;;;;4887438;29;20040;-94
2023/04/22 19:38:02;;;;;;;30.33;19.35;;;;;;;;;;4878052;29;20041;-93
2023/04/22 19:40:46;;;;;;;28.83;18.40;;;;;;;;;;4890495;29;20163;-95
2023/04/22 19:43:21;;;;;;;;;;;;;;;;;;4881540;29;20093;-94
2023/04/22 19:50:29;;;;;;;26.77;19.17;;;;;;;;;;4884022;29;20129;-95
2023/04/22 19:52:36;;;;;;;30.13;22.08;;;;;;;;;;4849120;29;20048;-93
2023/04/22 19:55:08;;;;;;;29.65;19.30;;;;;;;;;;4864568;29;20117;-95
2023/04/22 20:00:19;;;;;;;27.73;20.25;;;;;;;;;;5910526;23;21064;-90
